PWSweather.com
Personal Weather Stations
Station Observations
SANDHURSTWX
SandhurstGB

SandhurstGB

Lat: 51.3522, Lon: -0.7739

Elevation: 272.3

Station Type: Davis VP2

www.sandhurstweather.org.uk

High Low Average
Temperature 67.0°F19.4°C 41.4°F5.2°C 54.7°F12.6°C
Dew Point 47.1°F8.4°C 38.1°F3.4°C 43.8°F6.6°C
Winds 5.8 mph 9.3 kmh Calm Calm 2.0 mph E3.2 kmh E
Wind Gusts 8.1 mph13.0 kmh -- 3.0 mph4.8 kmh
Humidity 91% 45% 69%
Pressure 30.43 in1030.5 mb 30.36 in1028.1 mb -
Precipitation 0.00 in0.0 mm - -
Hour Temp Dew Point Humidity Winds Wind Gusts Pressure Precip Precip Rate Daily Precip Total
12:00 AM 50.7°F10.4°C 43.4°F6.3°C 76% Calm Calm 2.3 mph3.7 kmh 30.36 in1028.1 mb - 0.00 in0.0 mm 0.00 in0.0 mm
01:00 AM 49.0°F9.4°C 43.1°F6.2°C 80% 2.3 mph NE3.7 kmh NE 3.5 mph5.6 kmh 30.36 in1028.1 mb - 0.00 in0.0 mm 0.00 in0.0 mm
02:00 AM 47.2°F8.4°C 42.0°F5.6°C 82% 1.2 mph NE1.9 kmh NE 2.3 mph3.7 kmh 30.36 in1028.1 mb - 0.00 in0.0 mm 0.00 in0.0 mm
03:00 AM 45.6°F7.6°C 41.0°F5.0°C 84% 1.2 mph NE1.9 kmh NE 2.3 mph3.7 kmh 30.37 in1028.4 mb - 0.00 in0.0 mm 0.00 in0.0 mm
04:00 AM 43.8°F6.6°C 39.9°F4.4°C 86% Calm Calm -- 30.38 in1028.8 mb - 0.00 in0.0 mm 0.00 in0.0 mm
05:00 AM 42.9°F6.1°C 39.3°F4.1°C 87% Calm Calm -- 30.38 in1028.8 mb - 0.00 in0.0 mm 0.00 in0.0 mm
06:00 AM 41.4°F5.2°C 38.1°F3.4°C 88% Calm Calm -- 30.39 in1029.1 mb - 0.00 in0.0 mm 0.00 in0.0 mm
07:00 AM 41.8°F5.4°C 39.1°F3.9°C 90% Calm Calm -- 30.40 in1029.5 mb - 0.00 in0.0 mm 0.00 in0.0 mm
08:00 AM 47.0°F8.3°C 44.5°F6.9°C 91% 2.3 mph NE3.7 kmh NE 4.6 mph7.4 kmh 30.42 in1030.1 mb - 0.00 in0.0 mm 0.00 in0.0 mm
09:00 AM 57.6°F14.2°C 47.1°F8.4°C 68% 2.3 mph E3.7 kmh E 4.6 mph7.4 kmh 30.43 in1030.5 mb - 0.00 in0.0 mm 0.00 in0.0 mm
10:00 AM 60.2°F15.7°C 45.8°F7.7°C 59% 3.5 mph E5.6 kmh E 4.6 mph7.4 kmh 30.42 in1030.1 mb - 0.00 in0.0 mm 0.00 in0.0 mm
11:00 AM 62.0°F16.7°C 45.6°F7.6°C 55% 2.3 mph NE3.7 kmh NE 3.5 mph5.6 kmh 30.41 in1029.8 mb - 0.00 in0.0 mm 0.00 in0.0 mm
12:00 PM 64.3°F17.9°C 46.3°F7.9°C 52% 3.5 mph N5.6 kmh N 3.5 mph5.6 kmh 30.41 in1029.8 mb - 0.00 in0.0 mm 0.00 in0.0 mm
01:00 PM 64.8°F18.2°C 45.2°F7.3°C 49% 5.8 mph NE9.3 kmh NE 8.1 mph13.0 kmh 30.39 in1029.1 mb - 0.00 in0.0 mm 0.00 in0.0 mm
02:00 PM 65.9°F18.8°C 43.9°F6.6°C 45% 2.3 mph WNW3.7 kmh WNW 2.3 mph3.7 kmh 30.38 in1028.8 mb - 0.00 in0.0 mm 0.00 in0.0 mm
03:00 PM 66.3°F19.1°C 45.5°F7.5°C 47% 2.3 mph NE3.7 kmh NE 4.6 mph7.4 kmh 30.38 in1028.8 mb - 0.00 in0.0 mm 0.00 in0.0 mm
04:00 PM 67.0°F19.4°C 45.5°F7.5°C 46% 2.3 mph NE3.7 kmh NE 4.6 mph7.4 kmh 30.37 in1028.4 mb - 0.00 in0.0 mm 0.00 in0.0 mm
05:00 PM 64.7°F18.2°C 45.6°F7.6°C 50% 2.3 mph NE3.7 kmh NE 3.5 mph5.6 kmh 30.37 in1028.4 mb - 0.00 in0.0 mm 0.00 in0.0 mm
06:00 PM 62.2°F16.8°C 46.3°F7.9°C 56% Calm Calm -- 30.38 in1028.8 mb - 0.00 in0.0 mm 0.00 in0.0 mm
07:00 PM 57.5°F14.2°C 45.8°F7.7°C 65% Calm Calm -- 30.40 in1029.5 mb - 0.00 in0.0 mm 0.00 in0.0 mm
08:00 PM 55.6°F13.1°C 45.2°F7.3°C 68% 1.2 mph ENE1.9 kmh ENE 2.3 mph3.7 kmh 30.41 in1029.8 mb - 0.00 in0.0 mm 0.00 in0.0 mm
09:00 PM 54.1°F12.3°C 44.9°F7.2°C 71% 1.2 mph E1.9 kmh E 3.5 mph5.6 kmh 30.41 in1029.8 mb - 0.00 in0.0 mm 0.00 in0.0 mm
10:00 PM 51.6°F10.9°C 44.6°F7.0°C 77% Calm Calm 2.3 mph3.7 kmh 30.43 in1030.5 mb - 0.00 in0.0 mm 0.00 in0.0 mm
11:00 PM 50.7°F10.4°C 44.0°F6.7°C 78% Calm Calm -- 30.43 in1030.5 mb - 0.00 in0.0 mm 0.00 in0.0 mm